sensor_id;sensor_type;location;lat;lon;timestamp;P1;durP1;ratioP1;P2;durP2;ratioP2
51806;SDS011;37865;51.304;9.536;2023-08-30T00:00:10;8.80;;;4.93;;
51806;SDS011;37865;51.304;9.536;2023-08-30T00:02:35;6.93;;;4.53;;
51806;SDS011;37865;51.304;9.536;2023-08-30T00:05:02;8.40;;;4.18;;
51806;SDS011;37865;51.304;9.536;2023-08-30T00:07:28;3.78;;;3.45;;
51806;SDS011;37865;51.304;9.536;2023-08-30T00:09:54;11.15;;;4.03;;
51806;SDS011;37865;51.304;9.536;2023-08-30T00:12:19;5.40;;;4.22;;
51806;SDS011;37865;51.304;9.536;2023-08-30T00:14:44;8.23;;;5.32;;
51806;SDS011;37865;51.304;9.536;2023-08-30T00:17:09;4.30;;;3.90;;
51806;SDS011;37865;51.304;9.536;2023-08-30T00:19:35;6.85;;;4.65;;
51806;SDS011;37865;51.304;9.536;2023-08-30T00:22:01;7.20;;;4.22;;
51806;SDS011;37865;51.304;9.536;2023-08-30T00:24:26;12.05;;;4.63;;
51806;SDS011;37865;51.304;9.536;2023-08-30T00:26:53;7.07;;;4.88;;
51806;SDS011;37865;51.304;9.536;2023-08-30T00:29:18;4.10;;;3.42;;
51806;SDS011;37865;51.304;9.536;2023-08-30T00:31:44;14.38;;;4.10;;
51806;SDS011;37865;51.304;9.536;2023-08-30T00:34:09;4.13;;;3.78;;
51806;SDS011;37865;51.304;9.536;2023-08-30T00:36:34;8.35;;;3.58;;
51806;SDS011;37865;51.304;9.536;2023-08-30T00:38:59;3.88;;;3.20;;
51806;SDS011;37865;51.304;9.536;2023-08-30T00:41:25;7.78;;;4.28;;
51806;SDS011;37865;51.304;9.536;2023-08-30T00:43:50;7.15;;;4.97;;
51806;SDS011;37865;51.304;9.536;2023-08-30T00:46:15;8.73;;;4.30;;
51806;SDS011;37865;51.304;9.536;2023-08-30T00:48:41;5.70;;;3.90;;
51806;SDS011;37865;51.304;9.536;2023-08-30T00:51:09;24.40;;;4.70;;
51806;SDS011;37865;51.304;9.536;2023-08-30T00:53:35;10.23;;;4.22;;
51806;SDS011;37865;51.304;9.536;2023-08-30T00:56:00;6.63;;;5.30;;
51806;SDS011;37865;51.304;9.536;2023-08-30T00:58:26;8.15;;;4.75;;
51806;SDS011;37865;51.304;9.536;2023-08-30T01:00:52;5.78;;;4.15;;
51806;SDS011;37865;51.304;9.536;2023-08-30T01:03:18;4.43;;;4.03;;
51806;SDS011;37865;51.304;9.536;2023-08-30T01:05:45;5.55;;;4.03;;
51806;SDS011;37865;51.304;9.536;2023-08-30T01:08:10;5.57;;;3.95;;
51806;SDS011;37865;51.304;9.536;2023-08-30T01:13:50;5.53;;;4.47;;
51806;SDS011;37865;51.304;9.536;2023-08-30T01:16:21;11.00;;;4.30;;
51806;SDS011;37865;51.304;9.536;2023-08-30T01:18:48;8.82;;;4.38;;
51806;SDS011;37865;51.304;9.536;2023-08-30T01:21:21;6.55;;;5.03;;
51806;SDS011;37865;51.304;9.536;2023-08-30T01:23:58;6.05;;;4.70;;
51806;SDS011;37865;51.304;9.536;2023-08-30T01:29:05;7.95;;;4.63;;
51806;SDS011;37865;51.304;9.536;2023-08-30T01:31:31;7.82;;;4.78;;
51806;SDS011;37865;51.304;9.536;2023-08-30T01:33:58;15.07;;;4.75;;
51806;SDS011;37865;51.304;9.536;2023-08-30T01:36:24;7.88;;;5.72;;
51806;SDS011;37865;51.304;9.536;2023-08-30T01:38:51;17.98;;;4.10;;
51806;SDS011;37865;51.304;9.536;2023-08-30T01:41:17;17.27;;;5.40;;
51806;SDS011;37865;51.304;9.536;2023-08-30T01:43:44;14.75;;;5.05;;
51806;SDS011;37865;51.304;9.536;2023-08-30T01:46:10;9.05;;;5.40;;
51806;SDS011;37865;51.304;9.536;2023-08-30T01:48:36;12.05;;;5.32;;
51806;SDS011;37865;51.304;9.536;2023-08-30T01:51:02;6.75;;;5.55;;
51806;SDS011;37865;51.304;9.536;2023-08-30T01:53:29;13.80;;;5.55;;
51806;SDS011;37865;51.304;9.536;2023-08-30T01:55:55;9.85;;;5.63;;
51806;SDS011;37865;51.304;9.536;2023-08-30T01:58:21;5.00;;;3.95;;
51806;SDS011;37865;51.304;9.536;2023-08-30T02:00:46;5.93;;;5.28;;
51806;SDS011;37865;51.304;9.536;2023-08-30T02:03:12;13.32;;;5.78;;
51806;SDS011;37865;51.304;9.536;2023-08-30T02:05:43;13.40;;;6.10;;
51806;SDS011;37865;51.304;9.536;2023-08-30T02:08:16;10.85;;;5.38;;
51806;SDS011;37865;51.304;9.536;2023-08-30T02:10:44;6.68;;;4.68;;
51806;SDS011;37865;51.304;9.536;2023-08-30T02:13:16;10.27;;;5.30;;
51806;SDS011;37865;51.304;9.536;2023-08-30T02:15:44;14.35;;;5.65;;
51806;SDS011;37865;51.304;9.536;2023-08-30T02:18:11;9.10;;;5.00;;
51806;SDS011;37865;51.304;9.536;2023-08-30T02:20:36;7.07;;;6.07;;
51806;SDS011;37865;51.304;9.536;2023-08-30T02:23:02;14.82;;;5.50;;
51806;SDS011;37865;51.304;9.536;2023-08-30T02:25:27;6.50;;;5.43;;
51806;SDS011;37865;51.304;9.536;2023-08-30T02:27:52;8.57;;;5.03;;
51806;SDS011;37865;51.304;9.536;2023-08-30T02:30:18;10.43;;;5.78;;
51806;SDS011;37865;51.304;9.536;2023-08-30T02:32:44;12.25;;;6.22;;
51806;SDS011;37865;51.304;9.536;2023-08-30T02:35:09;13.27;;;6.63;;
51806;SDS011;37865;51.304;9.536;2023-08-30T02:37:34;11.50;;;6.00;;
51806;SDS011;37865;51.304;9.536;2023-08-30T02:40:00;12.13;;;5.88;;
51806;SDS011;37865;51.304;9.536;2023-08-30T02:42:26;10.25;;;6.80;;
51806;SDS011;37865;51.304;9.536;2023-08-30T02:44:51;7.53;;;6.75;;
51806;SDS011;37865;51.304;9.536;2023-08-30T02:47:17;8.55;;;5.63;;
51806;SDS011;37865;51.304;9.536;2023-08-30T02:49:42;11.10;;;6.15;;
51806;SDS011;37865;51.304;9.536;2023-08-30T02:52:07;7.80;;;6.07;;
51806;SDS011;37865;51.304;9.536;2023-08-30T02:54:33;10.70;;;6.70;;
51806;SDS011;37865;51.304;9.536;2023-08-30T02:56:58;8.35;;;6.60;;
51806;SDS011;37865;51.304;9.536;2023-08-30T02:59:23;8.65;;;6.50;;
51806;SDS011;37865;51.304;9.536;2023-08-30T03:01:49;7.80;;;5.65;;
51806;SDS011;37865;51.304;9.536;2023-08-30T03:04:14;17.38;;;5.75;;
51806;SDS011;37865;51.304;9.536;2023-08-30T03:06:39;7.45;;;5.95;;
51806;SDS011;37865;51.304;9.536;2023-08-30T03:09:05;13.00;;;5.57;;
51806;SDS011;37865;51.304;9.536;2023-08-30T03:11:31;8.35;;;5.70;;
51806;SDS011;37865;51.304;9.536;2023-08-30T03:13:57;10.98;;;5.80;;
51806;SDS011;37865;51.304;9.536;2023-08-30T03:16:22;5.70;;;5.13;;
51806;SDS011;37865;51.304;9.536;2023-08-30T03:18:47;7.43;;;5.75;;
51806;SDS011;37865;51.304;9.536;2023-08-30T03:21:13;19.55;;;5.53;;
51806;SDS011;37865;51.304;9.536;2023-08-30T03:23:39;10.65;;;6.05;;
51806;SDS011;37865;51.304;9.536;2023-08-30T03:26:09;7.35;;;5.35;;
51806;SDS011;37865;51.304;9.536;2023-08-30T03:28:36;10.40;;;4.90;;
51806;SDS011;37865;51.304;9.536;2023-08-30T03:31:01;6.38;;;5.03;;
51806;SDS011;37865;51.304;9.536;2023-08-30T03:33:27;6.93;;;6.22;;
51806;SDS011;37865;51.304;9.536;2023-08-30T03:35:52;6.03;;;4.82;;
51806;SDS011;37865;51.304;9.536;2023-08-30T03:38:17;11.27;;;5.82;;
51806;SDS011;37865;51.304;9.536;2023-08-30T03:40:43;5.80;;;5.20;;
51806;SDS011;37865;51.304;9.536;2023-08-30T03:43:08;14.13;;;5.40;;
51806;SDS011;37865;51.304;9.536;2023-08-30T03:45:34;8.10;;;4.97;;
51806;SDS011;37865;51.304;9.536;2023-08-30T03:48:00;8.45;;;5.20;;
51806;SDS011;37865;51.304;9.536;2023-08-30T03:50:26;5.57;;;5.00;;
51806;SDS011;37865;51.304;9.536;2023-08-30T03:52:51;6.05;;;4.80;;
51806;SDS011;37865;51.304;9.536;2023-08-30T03:55:16;10.82;;;6.03;;
51806;SDS011;37865;51.304;9.536;2023-08-30T03:57:42;8.95;;;5.18;;
51806;SDS011;37865;51.304;9.536;2023-08-30T04:00:07;13.15;;;5.45;;
51806;SDS011;37865;51.304;9.536;2023-08-30T04:02:33;8.45;;;5.68;;
51806;SDS011;37865;51.304;9.536;2023-08-30T04:04:58;10.57;;;5.57;;
51806;SDS011;37865;51.304;9.536;2023-08-30T04:07:23;8.73;;;4.88;;
51806;SDS011;37865;51.304;9.536;2023-08-30T04:09:49;10.55;;;5.75;;
51806;SDS011;37865;51.304;9.536;2023-08-30T04:12:15;9.27;;;5.63;;
51806;SDS011;37865;51.304;9.536;2023-08-30T04:14:40;7.07;;;5.20;;
51806;SDS011;37865;51.304;9.536;2023-08-30T04:17:05;9.80;;;5.38;;
51806;SDS011;37865;51.304;9.536;2023-08-30T04:19:31;5.18;;;4.70;;
51806;SDS011;37865;51.304;9.536;2023-08-30T04:21:56;6.63;;;4.93;;
51806;SDS011;37865;51.304;9.536;2023-08-30T04:24:21;7.05;;;4.57;;
51806;SDS011;37865;51.304;9.536;2023-08-30T04:26:47;10.50;;;4.80;;
51806;SDS011;37865;51.304;9.536;2023-08-30T04:29:16;5.00;;;4.30;;
51806;SDS011;37865;51.304;9.536;2023-08-30T04:31:42;6.25;;;5.05;;
51806;SDS011;37865;51.304;9.536;2023-08-30T04:34:08;5.60;;;4.38;;
51806;SDS011;37865;51.304;9.536;2023-08-30T04:36:33;12.32;;;6.32;;
51806;SDS011;37865;51.304;9.536;2023-08-30T04:38:58;6.15;;;4.72;;
51806;SDS011;37865;51.304;9.536;2023-08-30T04:41:24;4.50;;;4.10;;
51806;SDS011;37865;51.304;9.536;2023-08-30T04:43:49;5.47;;;4.82;;
51806;SDS011;37865;51.304;9.536;2023-08-30T04:46:14;12.73;;;5.07;;
51806;SDS011;37865;51.304;9.536;2023-08-30T04:48:40;6.72;;;4.72;;
51806;SDS011;37865;51.304;9.536;2023-08-30T04:51:05;8.57;;;4.88;;
51806;SDS011;37865;51.304;9.536;2023-08-30T04:53:30;12.80;;;5.30;;
51806;SDS011;37865;51.304;9.536;2023-08-30T04:55:56;6.45;;;5.30;;
51806;SDS011;37865;51.304;9.536;2023-08-30T04:58:21;16.77;;;5.30;;
51806;SDS011;37865;51.304;9.536;2023-08-30T05:00:47;10.80;;;5.13;;
51806;SDS011;37865;51.304;9.536;2023-08-30T05:03:12;9.43;;;6.55;;
51806;SDS011;37865;51.304;9.536;2023-08-30T05:05:37;10.95;;;6.35;;
51806;SDS011;37865;51.304;9.536;2023-08-30T05:08:03;7.95;;;5.30;;
51806;SDS011;37865;51.304;9.536;2023-08-30T05:10:28;5.90;;;5.22;;
51806;SDS011;37865;51.304;9.536;2023-08-30T05:12:54;8.50;;;5.00;;
51806;SDS011;37865;51.304;9.536;2023-08-30T05:15:19;8.77;;;5.32;;
51806;SDS011;37865;51.304;9.536;2023-08-30T05:17:45;12.05;;;5.85;;
51806;SDS011;37865;51.304;9.536;2023-08-30T05:20:11;6.75;;;5.05;;
51806;SDS011;37865;51.304;9.536;2023-08-30T05:22:36;6.95;;;4.93;;
51806;SDS011;37865;51.304;9.536;2023-08-30T05:25:02;11.90;;;6.22;;
51806;SDS011;37865;51.304;9.536;2023-08-30T05:27:27;6.95;;;5.38;;
51806;SDS011;37865;51.304;9.536;2023-08-30T05:29:53;7.75;;;6.10;;
51806;SDS011;37865;51.304;9.536;2023-08-30T05:32:18;8.15;;;5.18;;
51806;SDS011;37865;51.304;9.536;2023-08-30T05:34:44;15.02;;;5.15;;
51806;SDS011;37865;51.304;9.536;2023-08-30T05:37:09;11.45;;;5.65;;
51806;SDS011;37865;51.304;9.536;2023-08-30T05:39:34;10.45;;;6.18;;
51806;SDS011;37865;51.304;9.536;2023-08-30T05:42:00;8.90;;;6.40;;
51806;SDS011;37865;51.304;9.536;2023-08-30T05:44:25;5.95;;;5.18;;
51806;SDS011;37865;51.304;9.536;2023-08-30T05:46:50;5.95;;;5.35;;
51806;SDS011;37865;51.304;9.536;2023-08-30T05:49:16;6.22;;;5.38;;
51806;SDS011;37865;51.304;9.536;2023-08-30T05:51:41;9.00;;;5.53;;
51806;SDS011;37865;51.304;9.536;2023-08-30T05:54:07;13.25;;;5.57;;
51806;SDS011;37865;51.304;9.536;2023-08-30T05:56:32;6.57;;;5.18;;
51806;SDS011;37865;51.304;9.536;2023-08-30T05:58:57;8.65;;;5.57;;
51806;SDS011;37865;51.304;9.536;2023-08-30T06:01:23;6.70;;;5.53;;
51806;SDS011;37865;51.304;9.536;2023-08-30T06:03:49;6.90;;;5.97;;
51806;SDS011;37865;51.304;9.536;2023-08-30T06:06:15;9.95;;;6.72;;
51806;SDS011;37865;51.304;9.536;2023-08-30T06:08:40;6.93;;;5.65;;
51806;SDS011;37865;51.304;9.536;2023-08-30T06:11:06;7.65;;;5.70;;
51806;SDS011;37865;51.304;9.536;2023-08-30T06:13:31;8.93;;;6.28;;
51806;SDS011;37865;51.304;9.536;2023-08-30T06:15:56;6.75;;;5.97;;
51806;SDS011;37865;51.304;9.536;2023-08-30T06:18:22;8.38;;;5.72;;
51806;SDS011;37865;51.304;9.536;2023-08-30T06:20:47;8.93;;;6.15;;
51806;SDS011;37865;51.304;9.536;2023-08-30T06:23:13;7.32;;;5.85;;
51806;SDS011;37865;51.304;9.536;2023-08-30T06:25:40;8.45;;;5.50;;
51806;SDS011;37865;51.304;9.536;2023-08-30T06:28:05;29.27;;;5.75;;
51806;SDS011;37865;51.304;9.536;2023-08-30T06:30:30;7.78;;;6.32;;
51806;SDS011;37865;51.304;9.536;2023-08-30T06:32:56;8.65;;;6.68;;
51806;SDS011;37865;51.304;9.536;2023-08-30T06:35:22;12.90;;;7.25;;
51806;SDS011;37865;51.304;9.536;2023-08-30T06:37:48;7.47;;;6.35;;
51806;SDS011;37865;51.304;9.536;2023-08-30T06:40:13;7.07;;;6.00;;
51806;SDS011;37865;51.304;9.536;2023-08-30T06:42:39;7.25;;;6.35;;
51806;SDS011;37865;51.304;9.536;2023-08-30T06:45:04;8.43;;;6.93;;
51806;SDS011;37865;51.304;9.536;2023-08-30T06:47:30;6.55;;;5.95;;
51806;SDS011;37865;51.304;9.536;2023-08-30T06:49:55;8.18;;;7.10;;
51806;SDS011;37865;51.304;9.536;2023-08-30T06:52:21;7.65;;;5.75;;
51806;SDS011;37865;51.304;9.536;2023-08-30T06:54:46;7.07;;;6.38;;
51806;SDS011;37865;51.304;9.536;2023-08-30T06:57:12;9.55;;;6.05;;
51806;SDS011;37865;51.304;9.536;2023-08-30T06:59:37;7.32;;;6.63;;
51806;SDS011;37865;51.304;9.536;2023-08-30T07:02:02;7.78;;;6.97;;
51806;SDS011;37865;51.304;9.536;2023-08-30T07:04:29;8.25;;;7.30;;
51806;SDS011;37865;51.304;9.536;2023-08-30T07:06:54;10.07;;;6.85;;
51806;SDS011;37865;51.304;9.536;2023-08-30T07:09:20;8.57;;;7.15;;
51806;SDS011;37865;51.304;9.536;2023-08-30T07:11:47;7.38;;;6.60;;
51806;SDS011;37865;51.304;9.536;2023-08-30T07:14:12;7.13;;;6.43;;
51806;SDS011;37865;51.304;9.536;2023-08-30T07:16:39;8.68;;;6.22;;
51806;SDS011;37865;51.304;9.536;2023-08-30T07:19:05;6.85;;;6.15;;
51806;SDS011;37865;51.304;9.536;2023-08-30T07:21:30;9.00;;;6.43;;
51806;SDS011;37865;51.304;9.536;2023-08-30T07:23:55;8.90;;;7.93;;
51806;SDS011;37865;51.304;9.536;2023-08-30T07:26:21;14.98;;;7.22;;
51806;SDS011;37865;51.304;9.536;2023-08-30T07:28:46;7.40;;;6.50;;
51806;SDS011;37865;51.304;9.536;2023-08-30T07:31:12;8.32;;;7.55;;
51806;SDS011;37865;51.304;9.536;2023-08-30T07:33:43;9.57;;;5.63;;
51806;SDS011;37865;51.304;9.536;2023-08-30T07:36:08;7.85;;;6.57;;
51806;SDS011;37865;51.304;9.536;2023-08-30T07:38:33;13.90;;;6.97;;
51806;SDS011;37865;51.304;9.536;2023-08-30T07:40:59;7.82;;;6.55;;
51806;SDS011;37865;51.304;9.536;2023-08-30T07:43:25;9.07;;;6.85;;
51806;SDS011;37865;51.304;9.536;2023-08-30T07:45:50;7.95;;;7.10;;
51806;SDS011;37865;51.304;9.536;2023-08-30T07:48:16;7.57;;;6.00;;
51806;SDS011;37865;51.304;9.536;2023-08-30T07:50:41;11.18;;;6.53;;
51806;SDS011;37865;51.304;9.536;2023-08-30T07:53:06;8.60;;;5.78;;
51806;SDS011;37865;51.304;9.536;2023-08-30T07:55:31;8.07;;;6.60;;
51806;SDS011;37865;51.304;9.536;2023-08-30T07:57:57;10.07;;;6.25;;
51806;SDS011;37865;51.304;9.536;2023-08-30T08:00:22;7.10;;;5.00;;
51806;SDS011;37865;51.304;9.536;2023-08-30T08:02:47;10.98;;;6.57;;
51806;SDS011;37865;51.304;9.536;2023-08-30T08:05:13;8.52;;;6.47;;
51806;SDS011;37865;51.304;9.536;2023-08-30T08:07:38;9.38;;;6.30;;
51806;SDS011;37865;51.304;9.536;2023-08-30T08:10:05;7.28;;;5.85;;
51806;SDS011;37865;51.304;9.536;2023-08-30T08:12:32;8.48;;;6.53;;
51806;SDS011;37865;51.304;9.536;2023-08-30T08:14:58;6.97;;;6.28;;
51806;SDS011;37865;51.304;9.536;2023-08-30T08:17:23;13.18;;;7.15;;
51806;SDS011;37865;51.304;9.536;2023-08-30T08:19:48;6.78;;;5.95;;
51806;SDS011;37865;51.304;9.536;2023-08-30T08:22:13;7.13;;;6.05;;
51806;SDS011;37865;51.304;9.536;2023-08-30T08:24:39;8.30;;;6.75;;
51806;SDS011;37865;51.304;9.536;2023-08-30T08:27:04;11.48;;;6.05;;
51806;SDS011;37865;51.304;9.536;2023-08-30T08:29:31;8.85;;;5.60;;
51806;SDS011;37865;51.304;9.536;2023-08-30T08:31:56;7.65;;;6.25;;
51806;SDS011;37865;51.304;9.536;2023-08-30T08:34:22;8.75;;;6.00;;
51806;SDS011;37865;51.304;9.536;2023-08-30T08:36:47;6.43;;;5.80;;
51806;SDS011;37865;51.304;9.536;2023-08-30T08:39:13;8.85;;;6.25;;
51806;SDS011;37865;51.304;9.536;2023-08-30T08:41:40;10.75;;;6.63;;
51806;SDS011;37865;51.304;9.536;2023-08-30T08:44:07;9.05;;;7.07;;
51806;SDS011;37865;51.304;9.536;2023-08-30T08:46:33;11.70;;;5.78;;
51806;SDS011;37865;51.304;9.536;2023-08-30T08:49:02;7.32;;;5.70;;
51806;SDS011;37865;51.304;9.536;2023-08-30T08:51:33;12.18;;;7.63;;
51806;SDS011;37865;51.304;9.536;2023-08-30T08:54:02;6.70;;;4.85;;
51806;SDS011;37865;51.304;9.536;2023-08-30T08:56:28;9.85;;;7.53;;
51806;SDS011;37865;51.304;9.536;2023-08-30T08:58:55;12.02;;;8.02;;
51806;SDS011;37865;51.304;9.536;2023-08-30T09:01:21;7.53;;;6.78;;
51806;SDS011;37865;51.304;9.536;2023-08-30T09:03:47;12.73;;;7.40;;
51806;SDS011;37865;51.304;9.536;2023-08-30T09:06:13;10.85;;;8.05;;
51806;SDS011;37865;51.304;9.536;2023-08-30T09:08:40;10.40;;;7.38;;
51806;SDS011;37865;51.304;9.536;2023-08-30T09:11:05;7.75;;;7.03;;
51806;SDS011;37865;51.304;9.536;2023-08-30T09:13:30;8.30;;;7.13;;
51806;SDS011;37865;51.304;9.536;2023-08-30T09:15:56;8.90;;;8.00;;
51806;SDS011;37865;51.304;9.536;2023-08-30T09:18:22;8.55;;;7.18;;
51806;SDS011;37865;51.304;9.536;2023-08-30T09:20:52;8.27;;;7.00;;
51806;SDS011;37865;51.304;9.536;2023-08-30T09:23:18;13.40;;;6.00;;
51806;SDS011;37865;51.304;9.536;2023-08-30T09:25:46;8.52;;;7.63;;
51806;SDS011;37865;51.304;9.536;2023-08-30T09:28:12;13.77;;;7.10;;
51806;SDS011;37865;51.304;9.536;2023-08-30T09:30:38;12.45;;;7.22;;
51806;SDS011;37865;51.304;9.536;2023-08-30T09:33:04;10.10;;;7.50;;
51806;SDS011;37865;51.304;9.536;2023-08-30T09:35:30;8.85;;;6.70;;
51806;SDS011;37865;51.304;9.536;2023-08-30T09:37:55;12.00;;;8.50;;
51806;SDS011;37865;51.304;9.536;2023-08-30T09:40:21;8.05;;;7.20;;
51806;SDS011;37865;51.304;9.536;2023-08-30T09:42:47;10.57;;;7.03;;
51806;SDS011;37865;51.304;9.536;2023-08-30T09:45:19;7.13;;;6.25;;
51806;SDS011;37865;51.304;9.536;2023-08-30T09:47:47;23.23;;;7.18;;
51806;SDS011;37865;51.304;9.536;2023-08-30T09:50:17;6.93;;;5.32;;
51806;SDS011;37865;51.304;9.536;2023-08-30T09:52:43;9.05;;;7.50;;
51806;SDS011;37865;51.304;9.536;2023-08-30T09:55:11;17.00;;;9.70;;
51806;SDS011;37865;51.304;9.536;2023-08-30T09:57:36;6.55;;;5.78;;
51806;SDS011;37865;51.304;9.536;2023-08-30T10:00:02;8.95;;;7.43;;
51806;SDS011;37865;51.304;9.536;2023-08-30T10:02:29;9.93;;;8.93;;
51806;SDS011;37865;51.304;9.536;2023-08-30T10:04:56;12.93;;;9.05;;
51806;SDS011;37865;51.304;9.536;2023-08-30T10:07:22;9.93;;;8.77;;
51806;SDS011;37865;51.304;9.536;2023-08-30T10:09:50;9.02;;;7.28;;
51806;SDS011;37865;51.304;9.536;2023-08-30T10:12:18;8.73;;;7.82;;
51806;SDS011;37865;51.304;9.536;2023-08-30T10:14:45;9.52;;;8.38;;
51806;SDS011;37865;51.304;9.536;2023-08-30T10:17:10;10.52;;;8.65;;
51806;SDS011;37865;51.304;9.536;2023-08-30T10:19:39;9.55;;;8.63;;
51806;SDS011;37865;51.304;9.536;2023-08-30T10:22:06;10.38;;;7.80;;
51806;SDS011;37865;51.304;9.536;2023-08-30T10:27:43;13.18;;;7.22;;
51806;SDS011;37865;51.304;9.536;2023-08-30T10:30:11;13.27;;;8.35;;
51806;SDS011;37865;51.304;9.536;2023-08-30T10:32:41;15.60;;;9.27;;
51806;SDS011;37865;51.304;9.536;2023-08-30T10:35:10;10.10;;;8.88;;
51806;SDS011;37865;51.304;9.536;2023-08-30T10:37:39;10.55;;;7.50;;
51806;SDS011;37865;51.304;9.536;2023-08-30T10:40:05;11.13;;;8.77;;
51806;SDS011;37865;51.304;9.536;2023-08-30T10:42:32;11.30;;;9.35;;
51806;SDS011;37865;51.304;9.536;2023-08-30T10:47:31;9.82;;;8.82;;
51806;SDS011;37865;51.304;9.536;2023-08-30T10:50:04;9.43;;;7.50;;
51806;SDS011;37865;51.304;9.536;2023-08-30T10:52:31;13.48;;;10.25;;
51806;SDS011;37865;51.304;9.536;2023-08-30T10:55:10;14.20;;;11.02;;
51806;SDS011;37865;51.304;9.536;2023-08-30T10:57:36;9.85;;;8.13;;
51806;SDS011;37865;51.304;9.536;2023-08-30T11:00:06;13.93;;;10.55;;
51806;SDS011;37865;51.304;9.536;2023-08-30T11:02:33;10.57;;;7.72;;
51806;SDS011;37865;51.304;9.536;2023-08-30T11:04:59;8.30;;;6.78;;
51806;SDS011;37865;51.304;9.536;2023-08-30T11:07:26;12.15;;;8.45;;
51806;SDS011;37865;51.304;9.536;2023-08-30T11:09:51;10.32;;;8.35;;
51806;SDS011;37865;51.304;9.536;2023-08-30T11:12:17;10.32;;;7.95;;
51806;SDS011;37865;51.304;9.536;2023-08-30T11:14:43;9.55;;;7.30;;
51806;SDS011;37865;51.304;9.536;2023-08-30T11:17:11;9.90;;;7.93;;
51806;SDS011;37865;51.304;9.536;2023-08-30T11:19:37;9.88;;;8.63;;
51806;SDS011;37865;51.304;9.536;2023-08-30T11:22:02;12.07;;;7.35;;
51806;SDS011;37865;51.304;9.536;2023-08-30T11:24:28;8.63;;;7.60;;
51806;SDS011;37865;51.304;9.536;2023-08-30T11:26:54;7.18;;;5.65;;
51806;SDS011;37865;51.304;9.536;2023-08-30T11:29:22;9.45;;;6.60;;
51806;SDS011;37865;51.304;9.536;2023-08-30T11:31:48;6.53;;;5.75;;
51806;SDS011;37865;51.304;9.536;2023-08-30T11:34:14;5.90;;;4.75;;
51806;SDS011;37865;51.304;9.536;2023-08-30T11:36:39;13.30;;;4.57;;
51806;SDS011;37865;51.304;9.536;2023-08-30T11:39:05;6.97;;;6.18;;
51806;SDS011;37865;51.304;9.536;2023-08-30T11:41:32;7.15;;;5.90;;
51806;SDS011;37865;51.304;9.536;2023-08-30T11:43:57;7.38;;;5.03;;
51806;SDS011;37865;51.304;9.536;2023-08-30T11:46:23;11.13;;;5.20;;
51806;SDS011;37865;51.304;9.536;2023-08-30T11:48:49;4.28;;;3.92;;
51806;SDS011;37865;51.304;9.536;2023-08-30T11:51:16;6.05;;;4.60;;
51806;SDS011;37865;51.304;9.536;2023-08-30T11:53:43;8.23;;;5.50;;
51806;SDS011;37865;51.304;9.536;2023-08-30T11:56:10;4.43;;;4.03;;
51806;SDS011;37865;51.304;9.536;2023-08-30T11:58:36;3.97;;;3.58;;
51806;SDS011;37865;51.304;9.536;2023-08-30T12:01:03;4.43;;;4.03;;
51806;SDS011;37865;51.304;9.536;2023-08-30T12:03:29;9.25;;;4.40;;
51806;SDS011;37865;51.304;9.536;2023-08-30T12:05:55;9.25;;;4.25;;
51806;SDS011;37865;51.304;9.536;2023-08-30T12:08:24;4.10;;;3.65;;
51806;SDS011;37865;51.304;9.536;2023-08-30T12:10:50;3.95;;;3.47;;
51806;SDS011;37865;51.304;9.536;2023-08-30T12:13:33;8.43;;;3.67;;
51806;SDS011;37865;51.304;9.536;2023-08-30T12:16:00;7.35;;;3.05;;
51806;SDS011;37865;51.304;9.536;2023-08-30T12:18:27;4.63;;;4.07;;
51806;SDS011;37865;51.304;9.536;2023-08-30T12:21:03;5.00;;;4.05;;
51806;SDS011;37865;51.304;9.536;2023-08-30T12:23:29;7.30;;;3.92;;
51806;SDS011;37865;51.304;9.536;2023-08-30T12:28:23;6.18;;;3.60;;
51806;SDS011;37865;51.304;9.536;2023-08-30T12:30:49;4.10;;;3.15;;
51806;SDS011;37865;51.304;9.536;2023-08-30T12:33:17;6.30;;;3.85;;
51806;SDS011;37865;51.304;9.536;2023-08-30T12:35:43;9.05;;;4.10;;
51806;SDS011;37865;51.304;9.536;2023-08-30T12:38:08;10.80;;;4.88;;
51806;SDS011;37865;51.304;9.536;2023-08-30T12:40:34;6.20;;;4.07;;
51806;SDS011;37865;51.304;9.536;2023-08-30T12:43:00;7.75;;;4.22;;
51806;SDS011;37865;51.304;9.536;2023-08-30T12:45:25;19.65;;;4.53;;
51806;SDS011;37865;51.304;9.536;2023-08-30T12:47:51;5.30;;;3.63;;
51806;SDS011;37865;51.304;9.536;2023-08-30T12:50:16;10.10;;;4.45;;
51806;SDS011;37865;51.304;9.536;2023-08-30T12:52:41;5.68;;;3.35;;
51806;SDS011;37865;51.304;9.536;2023-08-30T12:55:07;7.72;;;3.15;;
51806;SDS011;37865;51.304;9.536;2023-08-30T12:57:32;8.02;;;3.70;;
51806;SDS011;37865;51.304;9.536;2023-08-30T12:59:58;4.13;;;3.67;;
51806;SDS011;37865;51.304;9.536;2023-08-30T13:02:23;4.82;;;3.88;;
51806;SDS011;37865;51.304;9.536;2023-08-30T13:04:48;3.35;;;3.05;;
51806;SDS011;37865;51.304;9.536;2023-08-30T13:07:13;4.03;;;2.88;;
51806;SDS011;37865;51.304;9.536;2023-08-30T13:09:39;5.13;;;3.80;;
51806;SDS011;37865;51.304;9.536;2023-08-30T13:12:04;5.95;;;4.00;;
51806;SDS011;37865;51.304;9.536;2023-08-30T13:14:30;6.75;;;4.22;;
51806;SDS011;37865;51.304;9.536;2023-08-30T13:16:55;5.45;;;3.67;;
51806;SDS011;37865;51.304;9.536;2023-08-30T13:19:20;3.35;;;3.00;;
51806;SDS011;37865;51.304;9.536;2023-08-30T13:21:46;5.55;;;3.70;;
51806;SDS011;37865;51.304;9.536;2023-08-30T13:24:11;5.47;;;3.78;;
51806;SDS011;37865;51.304;9.536;2023-08-30T13:26:37;7.25;;;3.13;;
51806;SDS011;37865;51.304;9.536;2023-08-30T13:29:02;5.50;;;3.33;;
51806;SDS011;37865;51.304;9.536;2023-08-30T13:31:27;17.88;;;5.30;;
51806;SDS011;37865;51.304;9.536;2023-08-30T13:33:53;6.28;;;3.20;;
51806;SDS011;37865;51.304;9.536;2023-08-30T13:36:18;6.85;;;4.25;;
51806;SDS011;37865;51.304;9.536;2023-08-30T13:38:43;5.85;;;3.83;;
51806;SDS011;37865;51.304;9.536;2023-08-30T13:41:09;4.50;;;3.33;;
51806;SDS011;37865;51.304;9.536;2023-08-30T13:43:34;8.43;;;4.35;;
51806;SDS011;37865;51.304;9.536;2023-08-30T13:45:59;5.35;;;4.03;;
51806;SDS011;37865;51.304;9.536;2023-08-30T13:48:25;8.43;;;3.95;;
51806;SDS011;37865;51.304;9.536;2023-08-30T13:50:50;6.28;;;3.90;;
51806;SDS011;37865;51.304;9.536;2023-08-30T13:53:15;9.93;;;4.85;;
51806;SDS011;37865;51.304;9.536;2023-08-30T13:55:44;4.05;;;3.35;;
51806;SDS011;37865;51.304;9.536;2023-08-30T13:58:10;7.43;;;4.80;;
51806;SDS011;37865;51.304;9.536;2023-08-30T14:00:36;7.50;;;4.10;;
51806;SDS011;37865;51.304;9.536;2023-08-30T14:03:01;5.22;;;3.70;;
51806;SDS011;37865;51.304;9.536;2023-08-30T14:05:27;4.72;;;3.83;;
51806;SDS011;37865;51.304;9.536;2023-08-30T14:07:53;7.32;;;4.55;;
51806;SDS011;37865;51.304;9.536;2023-08-30T14:10:18;6.95;;;3.38;;
51806;SDS011;37865;51.304;9.536;2023-08-30T14:12:44;8.00;;;3.60;;
51806;SDS011;37865;51.304;9.536;2023-08-30T14:15:09;4.22;;;2.63;;
51806;SDS011;37865;51.304;9.536;2023-08-30T14:17:34;5.63;;;3.35;;
51806;SDS011;37865;51.304;9.536;2023-08-30T14:20:00;3.70;;;2.67;;
51806;SDS011;37865;51.304;9.536;2023-08-30T14:22:26;5.10;;;4.30;;
51806;SDS011;37865;51.304;9.536;2023-08-30T14:24:51;2.65;;;2.45;;
51806;SDS011;37865;51.304;9.536;2023-08-30T14:27:16;5.40;;;3.35;;
51806;SDS011;37865;51.304;9.536;2023-08-30T14:29:42;6.13;;;3.03;;
51806;SDS011;37865;51.304;9.536;2023-08-30T14:32:07;7.93;;;4.22;;
51806;SDS011;37865;51.304;9.536;2023-08-30T14:34:32;5.90;;;3.83;;
51806;SDS011;37865;51.304;9.536;2023-08-30T14:36:57;5.38;;;3.55;;
51806;SDS011;37865;51.304;9.536;2023-08-30T14:39:24;3.08;;;2.65;;
51806;SDS011;37865;51.304;9.536;2023-08-30T14:41:49;3.42;;;3.20;;
51806;SDS011;37865;51.304;9.536;2023-08-30T14:44:14;5.85;;;3.45;;
51806;SDS011;37865;51.304;9.536;2023-08-30T14:46:40;6.00;;;3.80;;
51806;SDS011;37865;51.304;9.536;2023-08-30T14:49:05;4.65;;;2.83;;